ADDS METAR Data INFO
IDs: Format: Raw Decoded Include TAF

Data at: 0902 UTC 20 Oct 2017

KCRX 200855Z AUTO 00000KT 8SM FEW002 07/06 A3023 RMK AO2
KCRX 200835Z AUTO 00000KT 1SM BR CLR 07/07 A3023 RMK AO2
KCRX 200815Z AUTO 00000KT 1/2SM FG VV005 06/06 A3023 RMK AO2
KCRX 200755Z AUTO 00000KT 3/4SM BR 07/07 A3023 RMK AO2
KCRX 200735Z AUTO 00000KT 4SM BR CLR 08/07 A3022 RMK AO2
KCRX 200715Z AUTO 00000KT 10SM CLR 08/08 A3022 RMK AO2
KCRX 200655Z AUTO 00000KT 9SM CLR 08/07 A3022 RMK AO2
KCRX 200635Z AUTO 00000KT 10SM CLR 08/07 A3022 RMK AO2
KCRX 200615Z AUTO 00000KT 1 1/4SM BR CLR 08/08 A3022 RMK AO2
KCRX 200555Z AUTO 00000KT 3/4SM BR VV005 09/08 A3023 RMK AO2
KCRX 200535Z AUTO 00000KT 1/2SM BR VV005 09/08 A3022 RMK AO2
KCRX 200515Z AUTO 00000KT 1/4SM FG 09/08 A3023 RMK AO2
KCRX 200455Z AUTO 00000KT 3/4SM BR BKN002 09/09 A3023 RMK AO2
KCRX 200435Z AUTO 00000KT 1/4SM FG VV002 09/09 A3023 RMK AO2
KCRX 200415Z AUTO 00000KT M1/4SM FG VV000 10/09 A3023 RMK AO2
KCRX 200355Z AUTO 00000KT 1 3/4SM BR CLR 10/10 A3023 RMK AO2
KCRX 200335Z AUTO 00000KT 1/4SM FG VV002 10/09 A3023 RMK AO2
KCRX 200315Z AUTO 00000KT 8SM CLR 11/11 A3023 RMK AO2
KCRX 200255Z AUTO 00000KT 3SM BR CLR 11/10 A3023 RMK AO2
KCRX 200235Z AUTO 00000KT 2 1/2SM BR CLR 12/11 A3022 RMK AO2
KCRX 200215Z AUTO 00000KT 6SM BR CLR 12/11 A3022 RMK AO2
KCRX 200155Z AUTO 00000KT 10SM CLR 13/12 A3022 RMK AO2
KCRX 200135Z AUTO 00000KT 10SM CLR 13/12 A3022 RMK AO2
KCRX 200115Z AUTO 00000KT 10SM CLR 13/12 A3022 RMK AO2
KCRX 200055Z AUTO 00000KT 10SM CLR 14/12 A3022 RMK AO2
KCRX 200035Z AUTO 00000KT 10SM CLR 14/12 A3022 RMK AO2
KCRX 200015Z AUTO 00000KT 10SM CLR 15/13 A3021 RMK AO2
KCRX 192355Z AUTO 00000KT 10SM CLR 16/13 A3021 RMK AO2
KCRX 192335Z AUTO 00000KT 10SM CLR 17/14 A3021 RMK AO2
KCRX 192315Z AUTO 00000KT 10SM CLR 19/12 A3021 RMK AO2
KCRX 192255Z AUTO 00000KT 8SM CLR 21/11 A3020 RMK AO2
KCRX 192235Z AUTO 00000KT 10SM CLR 23/10 A3020 RMK AO2
KCRX 192215Z AUTO 14003KT 10SM CLR 24/09 A3020 RMK AO2
KCRX 192155Z AUTO 12004KT 10SM CLR 24/09 A3020 RMK AO2
KCRX 192135Z AUTO 13004KT 9SM CLR 24/09 A3021 RMK AO2
KCRX 192115Z AUTO 00000KT 10SM CLR 24/09 A3021 RMK AO2
KCRX 192055Z AUTO 00000KT 10SM CLR 24/08 A3021 RMK AO2
KCRX 192035Z AUTO 11005KT 10SM CLR 24/08 A3021 RMK AO2
KCRX 192015Z AUTO VRB04KT 10SM CLR 24/08 A3022 RMK AO2
KCRX 191955Z AUTO 00000KT 10SM CLR 24/09 A3022 RMK AO2
KCRX 191935Z AUTO 00000KT 9SM CLR 24/09 A3022 RMK AO2
KCRX 191915Z AUTO 00000KT 10SM CLR 23/09 A3023 RMK AO2
KCRX 191855Z AUTO VRB03KT 10SM CLR 23/09 A3023 RMK AO2
KCRX 191835Z AUTO VRB04G10KT 10SM CLR 23/09 A3024 RMK AO2
KCRX 191815Z AUTO 00000KT 10SM CLR 23/09 A3025 RMK AO2
KCRX 191755Z AUTO 00000KT 10SM CLR 22/09 A3026 RMK AO2
KCRX 191735Z AUTO VRB04KT 10SM CLR 22/09 A3027 RMK AO2
KCRX 191715Z AUTO 00000KT 10SM CLR 22/09 A3028 RMK AO2
KCRX 191655Z AUTO 17004KT 10SM CLR 21/09 A3029 RMK AO2
KCRX 191635Z AUTO 00000KT 10SM CLR 21/09 A3030 RMK AO2
KCRX 191615Z AUTO 00000KT 10SM CLR 20/09 A3030 RMK AO2
KCRX 191555Z AUTO VRB04KT 10SM CLR 19/09 A3030 RMK AO2
KCRX 191535Z AUTO VRB05KT 10SM CLR 19/09 A3031 RMK AO2
KCRX 191515Z AUTO 14004KT 10SM CLR 17/09 A3031 RMK AO2
KCRX 191455Z AUTO 14005KT 10SM CLR 16/10 A3031 RMK AO2
KCRX 191435Z AUTO 16003KT 10SM CLR 14/12 A3031 RMK AO2
KCRX 191415Z AUTO 15004KT 10SM CLR 11/11 A3030 RMK AO2
KCRX 191355Z AUTO 00000KT 10SM CLR 10/10 A3030 RMK AO2
KCRX 191335Z AUTO 00000KT 10SM CLR 09/08 A3029 RMK AO2
KCRX 191315Z AUTO 00000KT 10SM CLR 07/07 A3029 RMK AO2
KCRX 191255Z AUTO 00000KT 9SM CLR 06/06 A3028 RMK AO2
KCRX 191235Z AUTO 00000KT 5SM BR CLR 05/04 A3028 RMK AO2
KCRX 191215Z AUTO 00000KT 10SM CLR 04/04 A3027 RMK AO2
KCRX 191155Z AUTO 00000KT 10SM CLR 05/04 A3027 RMK AO2
KCRX 191135Z AUTO 00000KT 10SM CLR 04/04 A3027 RMK AO2
KCRX 191115Z AUTO 00000KT 9SM CLR 05/05 A3026 RMK AO2
KCRX 191055Z AUTO 00000KT 10SM CLR 05/05 A3025 RMK AO2
KCRX 191035Z AUTO 00000KT 6SM BR CLR 05/05 A3025 RMK AO2
KCRX 191015Z AUTO 00000KT 10SM CLR 05/05 A3024 RMK AO2
KCRX 190955Z AUTO 00000KT 10SM CLR 06/05 A3023 RMK AO2
KCRX 190935Z AUTO 00000KT 10SM CLR 06/05 A3023 RMK AO2
KCRX 190915Z AUTO 00000KT 1 1/4SM BR CLR 06/05 A3022 RMK AO2
KCRX 190855Z AUTO 00000KT 1/4SM FG VV002 06/05 A3021 RMK AO2
KCRX 190835Z AUTO 00000KT 3/4SM BR VV005 06/05 A3022 RMK AO2
KCRX 190815Z AUTO 00000KT 1 1/4SM BR CLR 07/06 A3022 RMK AO2
KCRX 190755Z AUTO 00000KT 4SM BR CLR 07/06 A3022 RMK AO2
KCRX 190735Z AUTO 00000KT 3/4SM BR VV005 07/06 A3022 RMK AO2
KCRX 190715Z AUTO 00000KT 8SM CLR 08/07 A3021 RMK AO2
KCRX 190655Z AUTO 00000KT 10SM CLR 07/06 A3021 RMK AO2
KCRX 190635Z AUTO 00000KT 10SM CLR 08/07 A3021 RMK AO2
KCRX 190615Z AUTO 00000KT 10SM CLR 08/07 A3021 RMK AO2
KCRX 190555Z AUTO 00000KT 10SM CLR 08/07 A3021 RMK AO2
KCRX 190535Z AUTO 00000KT 10SM CLR 08/07 A3021 RMK AO2
KCRX 190515Z AUTO 00000KT 10SM CLR 08/07 A3021 RMK AO2
KCRX 190455Z AUTO 00000KT 10SM CLR 08/07 A3021 RMK AO2
KCRX 190435Z AUTO 14004KT 10SM CLR 09/08 A3022 RMK AO2
KCRX 190415Z AUTO 16003KT 10SM CLR 09/09 A3022 RMK AO2
KCRX 190355Z AUTO 14004KT 10SM CLR 09/08 A3022 RMK AO2
KCRX 190335Z AUTO 15003KT 10SM CLR 09/08 A3023 RMK AO2
KCRX 190315Z AUTO 15003KT 10SM CLR 09/09 A3023 RMK AO2
KCRX 190255Z AUTO 00000KT 3/4SM BR VV005 10/09 A3023 RMK AO2
KCRX 190235Z AUTO 00000KT 10SM CLR 11/10 A3023 RMK AO2
KCRX 190215Z AUTO 00000KT 10SM CLR 11/09 A3022 RMK AO2
KCRX 190155Z AUTO 00000KT 10SM CLR 11/09 A3022 RMK AO2
KCRX 190135Z AUTO 16003KT 10SM CLR 11/10 A3022 RMK AO2
KCRX 190115Z AUTO 15003KT 10SM CLR 12/10 A3022 RMK AO2
KCRX 190055Z AUTO 00000KT 10SM CLR 12/10 A3022 RMK AO2
KCRX 190035Z AUTO 00000KT 10SM CLR 13/10 A3022 RMK AO2
KCRX 190015Z AUTO 14003KT 10SM CLR 14/10 A3022 RMK AO2
KCRX 182355Z AUTO 00000KT 10SM CLR 14/10 A3021 RMK AO2
KCRX 182335Z AUTO 00000KT 10SM CLR 16/10 A3021 RMK AO2
KCRX 182315Z AUTO 00000KT 10SM CLR 18/09 A3021 RMK AO2
KCRX 182255Z AUTO 00000KT 10SM CLR 21/08 A3020 RMK AO2
KCRX 182235Z AUTO 13003KT 10SM CLR 21/08 A3020 RMK AO2
KCRX 182215Z AUTO 15004KT 10SM CLR 22/07 A3020 RMK AO2
KCRX 182155Z AUTO 18005KT 10SM CLR 23/07 A3020 RMK AO2
KCRX 182135Z AUTO 15007G13KT 10SM CLR 23/06 A3020 RMK AO2
KCRX 182115Z AUTO VRB04KT 10SM CLR 23/07 A3020 RMK AO2